createdAt,value
2018-01-28T00:02:02.975Z,67.00
2018-01-28T00:04:31.322Z,66.97
2018-01-28T00:06:59.208Z,68.85
2018-01-28T00:09:26.822Z,70.30
2018-01-28T00:11:54.482Z,64.72
2018-01-28T00:14:22.118Z,60.75
2018-01-28T00:16:49.771Z,73.68
2018-01-28T00:19:17.473Z,57.28
2018-01-28T00:21:45.466Z,55.17
2018-01-28T00:24:13.963Z,63.75
2018-01-28T00:26:41.601Z,55.60
2018-01-28T00:29:09.204Z,61.35
2018-01-28T00:31:36.866Z,58.13
2018-01-28T00:34:04.592Z,65.00
2018-01-28T00:36:32.519Z,60.08
2018-01-28T00:39:00.166Z,61.13
2018-01-28T00:41:29.270Z,64.40
2018-01-28T00:43:56.875Z,55.60
2018-01-28T00:46:25.231Z,58.87
2018-01-28T00:48:52.818Z,53.58
2018-01-28T00:51:20.415Z,62.15
2018-01-28T00:53:48.118Z,60.38
2018-01-28T00:56:15.894Z,62.28
2018-01-28T00:58:43.485Z,63.97
2018-01-28T01:01:11.098Z,68.05
2018-01-28T01:03:38.710Z,65.60
2018-01-28T01:06:06.451Z,69.35
2018-01-28T01:08:34.072Z,59.85
2018-01-28T01:11:01.710Z,55.40
2018-01-28T01:13:29.309Z,56.88
2018-01-28T01:15:57.003Z,68.05
2018-01-28T01:18:24.644Z,55.95
2018-01-28T01:20:52.286Z,57.53
2018-01-28T01:23:21.200Z,69.35
2018-01-28T01:25:50.865Z,60.53
2018-01-28T01:28:20.310Z,58.35
2018-01-28T01:30:47.918Z,60.90
2018-01-28T01:33:18.145Z,59.83
2018-01-28T01:35:45.730Z,66.60
2018-01-28T01:38:15.239Z,60.63
2018-01-28T01:40:43.143Z,62.70
2018-01-28T01:43:11.527Z,56.22
2018-01-28T01:45:40.976Z,56.35
2018-01-28T01:48:08.655Z,57.62
2018-01-28T01:50:40.441Z,60.15
2018-01-28T01:53:08.050Z,56.42
2018-01-28T01:55:36.399Z,54.60
2018-01-28T01:58:08.346Z,56.55
2018-01-28T02:00:44.822Z,56.70
2018-01-28T02:03:14.735Z,57.78
2018-01-28T02:05:42.322Z,54.75
2018-01-28T02:08:09.979Z,60.70
2018-01-28T02:10:39.535Z,45.65
2018-01-28T02:13:10.527Z,52.65
2018-01-28T02:15:41.391Z,56.78
2018-01-28T02:18:09.274Z,55.88
2018-01-28T02:20:38.410Z,48.80
2018-01-28T02:23:07.743Z,48.90
2018-01-28T02:25:37.172Z,55.50
2018-01-28T02:28:09.206Z,54.33
2018-01-28T02:30:36.882Z,48.17
2018-01-28T02:33:05.238Z,47.38
2018-01-28T02:35:33.023Z,47.53
2018-01-28T02:38:00.616Z,42.55
2018-01-28T02:40:29.175Z,41.67
2018-01-28T02:42:56.806Z,39.80
2018-01-28T02:45:24.397Z,47.53
2018-01-28T02:47:52.004Z,45.12
2018-01-28T02:50:19.593Z,41.17
2018-01-28T02:52:47.198Z,43.25
2018-01-28T02:55:15.324Z,44.13
2018-01-28T02:57:43.106Z,44.95
2018-01-28T03:00:11.027Z,48.55
2018-01-28T03:02:39.374Z,43.13
2018-01-28T03:05:07.239Z,42.78
2018-01-28T03:07:36.062Z,49.05
2018-01-28T03:10:03.699Z,45.28
2018-01-28T03:12:31.610Z,38.50
2018-01-28T03:15:01.690Z,48.83
2018-01-28T03:17:30.039Z,36.00
2018-01-28T03:19:57.634Z,42.17
2018-01-28T03:22:25.319Z,44.15
2018-01-28T03:24:52.930Z,43.08
2018-01-28T03:27:25.506Z,43.33
2018-01-28T03:29:53.124Z,45.90
2018-01-28T03:32:20.786Z,42.72
2018-01-28T03:34:48.592Z,50.33
2018-01-28T03:37:17.130Z,42.42
2018-01-28T03:39:44.982Z,43.75
2018-01-28T03:42:14.581Z,48.28
2018-01-28T03:44:42.254Z,44.80
2018-01-28T03:47:10.939Z,46.03
2018-01-28T03:49:38.566Z,46.05
2018-01-28T03:52:06.271Z,49.63
2018-01-28T03:54:34.658Z,48.15
2018-01-28T03:57:02.274Z,52.05
2018-01-28T03:59:29.864Z,52.08
2018-01-28T04:01:59.212Z,47.62
2018-01-28T04:04:26.986Z,52.75
2018-01-28T04:06:54.746Z,54.53
2018-01-28T04:09:22.338Z,48.25
2018-01-28T04:11:49.931Z,49.90
2018-01-28T04:14:19.379Z,53.50
2018-01-28T04:16:47.720Z,49.80
2018-01-28T04:19:18.904Z,54.70
2018-01-28T04:21:47.170Z,41.17
2018-01-28T04:24:14.764Z,50.72
2018-01-28T04:26:42.619Z,48.40
2018-01-28T04:29:10.266Z,47.78
2018-01-28T04:31:38.823Z,46.85
2018-01-28T04:34:06.499Z,47.03
2018-01-28T04:36:34.198Z,49.58
2018-01-28T04:39:01.811Z,51.42
2018-01-28T04:41:29.679Z,45.35
2018-01-28T04:43:57.271Z,50.67
2018-01-28T04:46:25.130Z,45.28
2018-01-28T04:48:52.986Z,44.53
2018-01-28T04:51:20.683Z,51.60
2018-01-28T04:53:49.430Z,48.42
2018-01-28T04:56:17.050Z,48.60
2018-01-28T04:58:44.935Z,52.28
2018-01-28T05:01:12.580Z,46.47
2018-01-28T05:03:41.058Z,47.42
2018-01-28T05:06:08.654Z,44.08
2018-01-28T05:08:36.627Z,46.50
2018-01-28T05:11:04.289Z,45.78
2018-01-28T05:13:32.063Z,43.55
2018-01-28T05:15:59.874Z,42.40
2018-01-28T05:18:27.482Z,47.42
2018-01-28T05:20:55.863Z,44.88
2018-01-28T05:23:24.698Z,48.33
2018-01-28T05:25:52.404Z,50.85
2018-01-28T05:28:20.307Z,48.95
2018-01-28T05:30:48.722Z,46.65
2018-01-28T05:33:16.583Z,44.20
2018-01-28T05:35:44.203Z,47.85
2018-01-28T05:38:12.795Z,48.42
2018-01-28T05:40:41.144Z,49.47
2018-01-28T05:43:08.770Z,45.17
2018-01-28T05:45:36.491Z,50.90
2018-01-28T05:48:04.166Z,52.72
2018-01-28T05:50:31.771Z,54.05
2018-01-28T05:52:59.522Z,43.97
2018-01-28T05:55:28.166Z,50.35
2018-01-28T05:57:55.791Z,48.60
2018-01-28T06:00:23.462Z,58.70
2018-01-28T06:02:51.095Z,51.17
2018-01-28T06:05:19.466Z,50.67
2018-01-28T06:07:47.114Z,51.08
2018-01-28T06:10:14.723Z,50.03
2018-01-28T06:12:43.186Z,54.88
2018-01-28T06:15:10.826Z,42.72
2018-01-28T06:17:38.575Z,50.85
2018-01-28T06:20:06.198Z,45.78
2018-01-28T06:22:34.557Z,42.05
2018-01-28T06:25:02.182Z,40.33
2018-01-28T06:27:30.343Z,42.55
2018-01-28T06:29:57.950Z,37.53
2018-01-28T06:32:25.566Z,37.00
2018-01-28T06:34:53.170Z,32.75
2018-01-28T06:37:20.763Z,42.08
2018-01-28T06:39:48.371Z,39.85
2018-01-28T06:42:15.995Z,33.70
2018-01-28T06:44:43.621Z,33.95
2018-01-28T06:47:11.275Z,33.13
2018-01-28T06:49:39.638Z,35.85
2018-01-28T06:52:07.242Z,33.03
2018-01-28T06:54:36.257Z,36.72
2018-01-28T06:57:04.659Z,35.72
2018-01-28T06:59:32.308Z,37.85
2018-01-28T07:02:01.535Z,38.70
2018-01-28T07:04:29.915Z,38.65
2018-01-28T07:06:57.527Z,39.72
2018-01-28T07:09:25.115Z,37.42
2018-01-28T07:11:52.731Z,42.85
2018-01-28T07:14:21.133Z,34.35
2018-01-28T07:16:49.525Z,37.80
2018-01-28T07:19:17.114Z,41.90
2018-01-28T07:21:44.703Z,36.67
2018-01-28T07:24:12.302Z,34.80
2018-01-28T07:26:39.895Z,35.42
2018-01-28T07:29:07.534Z,35.30
2018-01-28T07:31:39.587Z,35.20
2018-01-28T07:34:07.989Z,31.75
2018-01-28T07:36:35.602Z,28.67
2018-01-28T07:39:03.227Z,24.00
2018-01-28T07:41:30.827Z,26.58
2018-01-28T07:43:58.426Z,24.15
2018-01-28T07:46:35.004Z,24.00
2018-01-28T07:49:02.716Z,23.90
2018-01-28T07:51:30.311Z,22.15
2018-01-28T07:53:57.939Z,21.55
2018-01-28T07:56:25.538Z,23.73
2018-01-28T07:58:54.129Z,23.02
2018-01-28T08:01:21.765Z,24.83
2018-01-28T08:03:49.359Z,20.37
2018-01-28T08:06:16.971Z,20.83
2018-01-28T08:08:46.523Z,18.15
2018-01-28T08:11:19.743Z,21.87
2018-01-28T08:16:49.570Z,17.37
2018-01-28T08:19:17.186Z,20.75
2018-01-28T08:21:44.802Z,15.25
2018-01-28T08:24:13.187Z,15.82
2018-01-28T08:26:54.418Z,18.10
2018-01-28T08:29:32.706Z,16.20
2018-01-28T08:32:00.299Z,13.62
2018-01-28T08:34:27.909Z,14.02
2018-01-28T08:36:55.558Z,13.25
2018-01-28T08:39:23.946Z,15.73
2018-01-28T08:41:52.319Z,12.50
2018-01-28T08:44:20.677Z,14.35
2018-01-28T08:46:48.277Z,11.35
2018-01-28T08:49:16.630Z,12.13
2018-01-28T08:51:44.214Z,10.07
2018-01-28T08:54:12.599Z,12.75
2018-01-28T08:56:40.958Z,11.05
2018-01-28T08:59:08.554Z,15.93
2018-01-28T09:01:36.907Z,16.95
2018-01-28T09:04:04.494Z,12.00
2018-01-28T09:06:32.851Z,20.23
2018-01-28T09:09:00.443Z,11.15
2018-01-28T09:11:28.883Z,14.35
2018-01-28T09:13:56.498Z,11.77
2018-01-28T09:16:24.859Z,13.23
2018-01-28T09:18:52.551Z,10.50
2018-01-28T09:21:20.194Z,17.42
2018-01-28T09:23:48.570Z,20.37
2018-01-28T09:26:16.187Z,11.80
2018-01-28T09:28:43.778Z,10.27
2018-01-28T09:31:11.371Z,10.13
2018-01-28T09:33:38.958Z,10.57
2018-01-28T09:36:07.305Z,10.05
2018-01-28T09:38:34.900Z,10.25
2018-01-28T09:41:03.320Z,11.07
2018-01-28T09:43:30.909Z,8.98
2018-01-28T09:45:58.491Z,13.55
2018-01-28T09:48:26.092Z,8.55
2018-01-28T09:50:53.675Z,8.25
2018-01-28T09:53:21.270Z,11.80
2018-01-28T09:55:48.851Z,9.88
2018-01-28T09:58:16.434Z,10.63
2018-01-28T10:00:44.939Z,10.32
2018-01-28T10:03:12.515Z,8.68
2018-01-28T10:05:40.094Z,7.47
2018-01-28T10:08:07.678Z,9.70
2018-01-28T10:10:36.279Z,8.50
2018-01-28T10:13:03.894Z,9.45
2018-01-28T10:15:31.479Z,6.68
2018-01-28T10:17:59.063Z,9.50
2018-01-28T10:20:26.657Z,8.70
2018-01-28T10:22:55.006Z,8.27
2018-01-28T10:25:22.600Z,12.50
2018-01-28T10:27:50.955Z,9.98
2018-01-28T10:30:18.538Z,7.53
2018-01-28T10:32:46.122Z,5.45
2018-01-28T10:35:14.522Z,5.35
2018-01-28T10:37:42.102Z,5.37
2018-01-28T10:40:09.724Z,4.50
2018-01-28T10:42:38.090Z,6.60
2018-01-28T10:45:05.671Z,5.45
2018-01-28T10:47:34.027Z,6.68
2018-01-28T10:50:01.606Z,4.75
2018-01-28T10:52:29.223Z,9.38
2018-01-28T10:54:56.806Z,5.62
2018-01-28T10:57:24.387Z,11.07
2018-01-28T10:59:57.918Z,4.85
2018-01-28T11:02:25.508Z,6.40
2018-01-28T11:04:53.093Z,7.00
2018-01-28T11:07:20.678Z,3.47
2018-01-28T11:09:55.398Z,5.45
2018-01-28T11:12:22.983Z,9.45
2018-01-28T11:14:50.610Z,4.20
2018-01-28T11:17:18.190Z,5.35
2018-01-28T11:19:50.523Z,6.57
2018-01-28T11:22:18.139Z,19.67
2018-01-28T11:24:45.719Z,3.40
2018-01-28T11:27:20.922Z,3.30
2018-01-28T11:29:50.446Z,3.50
2018-01-28T11:32:18.031Z,5.22
2018-01-28T11:34:45.609Z,7.68
2018-01-28T11:37:13.950Z,3.95
2018-01-28T11:39:41.562Z,3.80
2018-01-28T11:42:09.913Z,2.90
2018-01-28T11:44:37.498Z,3.92
2018-01-28T11:47:05.908Z,3.45
2018-01-28T11:49:33.482Z,3.22
2018-01-28T11:52:06.836Z,3.70
2018-01-28T11:54:34.428Z,2.92
2018-01-28T11:57:02.008Z,4.62
2018-01-28T11:59:38.495Z,2.75
2018-01-28T12:02:06.074Z,2.97
2018-01-28T12:04:33.661Z,4.12
2018-01-28T12:07:20.851Z,2.65
2018-01-28T12:09:48.445Z,2.83
2018-01-28T12:12:16.797Z,5.65
2018-01-28T12:14:54.675Z,5.45
2018-01-28T12:17:36.823Z,3.20
2018-01-28T12:20:12.131Z,4.78
2018-01-28T12:22:39.710Z,5.75
2018-01-28T12:25:26.667Z,4.47
2018-01-28T12:27:54.296Z,4.07
2018-01-28T12:30:21.875Z,3.95
2018-01-28T12:32:56.907Z,2.40
2018-01-28T12:35:29.564Z,2.80
2018-01-28T12:37:57.146Z,2.58
2018-01-28T12:40:25.514Z,3.22
2018-01-28T12:42:53.099Z,6.97
2018-01-28T12:45:21.454Z,2.25
2018-01-28T12:47:49.078Z,2.45
2018-01-28T12:50:22.238Z,2.55
2018-01-28T12:52:51.547Z,2.97
2018-01-28T12:55:19.898Z,3.65
2018-01-28T12:57:47.478Z,1.90
2018-01-28T13:00:15.063Z,8.00
2018-01-28T13:02:43.409Z,6.75
2018-01-28T13:05:10.986Z,3.50
2018-01-28T13:07:38.574Z,2.30
2018-01-28T13:10:15.072Z,4.97
2018-01-28T13:12:42.660Z,3.87
2018-01-28T13:15:11.104Z,2.72
2018-01-28T13:17:38.885Z,2.75
2018-01-28T13:20:06.562Z,3.15
2018-01-28T13:22:34.196Z,2.70
2018-01-28T13:25:01.812Z,2.62
2018-01-28T13:27:29.450Z,2.97
2018-01-28T13:29:57.054Z,3.53
2018-01-28T13:32:24.680Z,3.92
2018-01-28T13:34:52.327Z,4.30
2018-01-28T13:37:19.915Z,3.67
2018-01-28T13:39:47.498Z,2.53
2018-01-28T13:42:23.144Z,5.03
2018-01-28T13:44:50.771Z,3.65
2018-01-28T13:47:18.382Z,4.18
2018-01-28T13:49:51.196Z,2.85
2018-01-28T13:52:18.793Z,8.73
2018-01-28T13:54:46.374Z,3.33
2018-01-28T13:57:14.582Z,2.92
2018-01-28T13:59:42.167Z,3.53
2018-01-28T14:02:09.768Z,2.50
2018-01-28T14:04:37.355Z,2.70
2018-01-28T14:07:05.707Z,3.60
2018-01-28T14:09:33.326Z,2.03
2018-01-28T14:12:00.915Z,2.30
2018-01-28T14:14:29.266Z,2.35
2018-01-28T14:16:57.015Z,3.22
2018-01-28T14:19:24.682Z,7.97
2018-01-28T14:21:52.262Z,2.87
2018-01-28T14:24:19.846Z,4.28
2018-01-28T14:26:47.434Z,2.17
2018-01-28T14:29:15.778Z,6.22
2018-01-28T14:31:43.434Z,2.75
2018-01-28T14:34:11.014Z,2.22
2018-01-28T14:36:38.599Z,2.30
2018-01-28T14:39:06.187Z,2.80
2018-01-28T14:41:33.766Z,2.87
2018-01-28T14:44:01.378Z,3.92
2018-01-28T14:46:29.010Z,2.10
2018-01-28T14:48:57.404Z,2.53
2018-01-28T14:51:25.055Z,3.47
2018-01-28T14:53:52.663Z,2.80
2018-01-28T14:56:20.275Z,2.90
2018-01-28T14:58:47.968Z,8.88
2018-01-28T15:01:15.585Z,9.45
2018-01-28T15:03:50.555Z,9.05
2018-01-28T15:06:18.152Z,2.70
2018-01-28T15:08:45.793Z,3.17
2018-01-28T15:11:13.417Z,4.30
2018-01-28T15:13:41.766Z,2.67
2018-01-28T15:16:10.143Z,3.80
2018-01-28T15:18:37.866Z,4.60
2018-01-28T15:21:05.459Z,3.67
2018-01-28T15:23:33.046Z,4.87
2018-01-28T15:26:00.634Z,4.25
2018-01-28T15:28:29.040Z,2.80
2018-01-28T15:31:03.390Z,4.00
2018-01-28T15:33:30.987Z,10.30
2018-01-28T15:35:58.571Z,11.43
2018-01-28T15:38:26.932Z,22.92
2018-01-28T15:40:54.520Z,12.75
2018-01-28T15:43:22.876Z,8.07
2018-01-28T15:45:50.458Z,9.80
2018-01-28T15:48:18.809Z,6.65
2018-01-28T15:50:46.399Z,6.80
2018-01-28T15:53:14.779Z,5.82
2018-01-28T15:55:42.363Z,3.17
2018-01-28T15:58:10.716Z,3.58
2018-01-28T16:00:38.289Z,3.10
2018-01-28T16:03:05.862Z,7.43
2018-01-28T16:05:34.229Z,4.87
2018-01-28T16:08:01.810Z,4.78
2018-01-28T16:10:30.163Z,3.42
2018-01-28T16:12:57.745Z,8.80
2018-01-28T16:15:25.334Z,4.82
2018-01-28T16:17:53.864Z,6.93
2018-01-28T16:20:27.334Z,6.93
2018-01-28T16:23:05.933Z,6.32
2018-01-28T16:25:37.124Z,2.72
2018-01-28T16:28:04.781Z,3.55
2018-01-28T16:30:32.469Z,3.45
2018-01-28T16:33:00.059Z,3.25
2018-01-28T16:35:27.676Z,5.47
2018-01-28T16:37:59.379Z,3.95
2018-01-28T16:40:31.948Z,7.00
2018-01-28T16:42:59.527Z,5.35
2018-01-28T16:45:34.975Z,4.15
2018-01-28T16:48:02.595Z,3.20
2018-01-28T16:50:36.857Z,9.70
2018-01-28T16:53:05.219Z,4.35
2018-01-28T16:55:32.814Z,5.70
2018-01-28T16:58:01.158Z,2.55
2018-01-28T17:00:28.746Z,9.43
2018-01-28T17:02:56.367Z,3.22
2018-01-28T17:05:23.947Z,4.53
2018-01-28T17:07:51.527Z,3.87
2018-01-28T17:10:19.144Z,7.40
2018-01-28T17:12:46.742Z,5.60
2018-01-28T17:15:14.393Z,6.35
2018-01-28T17:17:42.018Z,7.20
2018-01-28T17:20:10.373Z,6.25
2018-01-28T17:22:37.959Z,11.35
2018-01-28T17:25:17.481Z,5.12
2018-01-28T17:27:45.069Z,7.55
2018-01-28T17:30:13.423Z,5.25
2018-01-28T17:32:48.520Z,4.30
2018-01-28T17:35:21.931Z,3.85
2018-01-28T17:37:49.540Z,4.00
2018-01-28T17:40:17.219Z,5.05
2018-01-28T17:42:44.802Z,2.90
2018-01-28T17:45:12.387Z,4.68
2018-01-28T17:47:41.000Z,3.62
2018-01-28T17:50:09.386Z,3.35
2018-01-28T17:52:37.040Z,4.43
2018-01-28T17:55:05.423Z,3.08
2018-01-28T17:57:33.054Z,5.03
2018-01-28T18:00:00.645Z,2.92
2018-01-28T18:02:28.249Z,4.70
2018-01-28T18:04:56.624Z,3.10
2018-01-28T18:07:25.289Z,4.70
2018-01-28T18:09:53.688Z,2.80
2018-01-28T18:12:21.367Z,5.90
2018-01-28T18:14:48.951Z,5.43
2018-01-28T18:17:17.294Z,2.50
2018-01-28T18:19:45.031Z,3.62
2018-01-28T18:22:12.634Z,5.62
2018-01-28T18:24:40.231Z,2.10
2018-01-28T18:27:08.583Z,2.75
2018-01-28T18:29:36.173Z,3.42
2018-01-28T18:32:04.535Z,5.37
2018-01-28T18:34:32.131Z,3.00
2018-01-28T18:36:59.715Z,5.80
2018-01-28T18:39:31.891Z,4.57
2018-01-28T18:41:59.475Z,4.85
2018-01-28T18:44:27.058Z,2.40
2018-01-28T18:46:54.657Z,4.00
2018-01-28T18:49:22.252Z,4.05
2018-01-28T18:51:49.899Z,2.60
2018-01-28T18:54:30.072Z,4.32
2018-01-28T18:56:57.663Z,4.78
2018-01-28T18:59:25.256Z,4.07
2018-01-28T19:01:53.616Z,3.17
2018-01-28T19:04:21.219Z,7.95
2018-01-28T19:06:48.854Z,7.90
2018-01-28T19:09:16.438Z,5.37
2018-01-28T19:11:44.802Z,6.05
2018-01-28T19:14:12.387Z,9.02
2018-01-28T19:16:40.746Z,3.25
2018-01-28T19:19:08.329Z,2.60
2018-01-28T19:21:36.723Z,6.65
2018-01-28T19:24:05.087Z,3.92
2018-01-28T19:26:32.667Z,3.28
2018-01-28T19:29:01.020Z,2.17
2018-01-28T19:31:28.611Z,2.20
2018-01-28T19:33:57.063Z,7.95
2018-01-28T19:36:24.791Z,3.87
2018-01-28T19:38:52.404Z,2.85
2018-01-28T19:41:20.035Z,4.72
2018-01-28T19:43:47.624Z,3.05
2018-01-28T19:46:15.211Z,2.20
2018-01-28T19:48:42.794Z,2.85
2018-01-28T19:51:11.294Z,4.75
2018-01-28T19:53:38.940Z,2.87
2018-01-28T19:56:07.516Z,3.55
2018-01-28T19:58:35.282Z,2.53
2018-01-28T20:01:03.807Z,6.10
2018-01-28T20:03:32.343Z,4.82
2018-01-28T20:05:59.967Z,3.28
2018-01-28T20:08:27.555Z,2.42
2018-01-28T20:10:55.152Z,2.45
2018-01-28T20:13:23.530Z,5.60
2018-01-28T20:15:51.123Z,3.37
2018-01-28T20:18:18.712Z,3.42
2018-01-28T20:20:46.315Z,9.02
2018-01-28T20:23:13.911Z,3.67
2018-01-28T20:25:42.283Z,8.23
2018-01-28T20:28:10.647Z,11.35
2018-01-28T20:30:44.031Z,10.40
2018-01-28T20:33:11.631Z,15.70
2018-01-28T20:35:39.999Z,7.93
2018-01-28T20:38:07.582Z,3.25
2018-01-28T20:40:35.934Z,8.40
2018-01-28T20:43:03.560Z,8.13
2018-01-28T20:45:31.914Z,13.30
2018-01-28T20:48:00.271Z,3.65
2018-01-28T20:50:27.868Z,10.02
2018-01-28T20:52:55.456Z,7.90
2018-01-28T20:58:01.618Z,10.25
2018-01-28T21:00:29.220Z,10.35
2018-01-28T21:02:56.807Z,12.63
2018-01-28T21:05:24.395Z,18.00
2018-01-28T21:07:52.799Z,7.37
2018-01-28T21:10:20.391Z,11.68
2018-01-28T21:12:49.994Z,10.45
2018-01-28T21:15:17.654Z,11.10
2018-01-28T21:17:46.003Z,12.60
2018-01-28T21:20:14.362Z,14.90
2018-01-28T21:22:41.955Z,14.90
2018-01-28T21:25:12.308Z,11.05
2018-01-28T21:27:39.891Z,21.48
2018-01-28T21:30:07.484Z,12.40
2018-01-28T21:32:35.071Z,9.40
2018-01-28T21:35:03.464Z,14.18
2018-01-28T21:37:31.055Z,10.25
2018-01-28T21:39:58.642Z,15.25
2018-01-28T21:42:26.231Z,13.85
2018-01-28T21:44:53.814Z,18.02
2018-01-28T21:47:22.175Z,10.07
2018-01-28T21:49:49.762Z,12.02
2018-01-28T21:52:18.114Z,11.55
2018-01-28T21:54:45.703Z,8.57
2018-01-28T21:57:14.051Z,11.65
2018-01-28T21:59:41.657Z,17.27
2018-01-28T22:02:10.011Z,36.13
2018-01-28T22:04:37.602Z,26.87
2018-01-28T22:07:05.960Z,24.17
2018-01-28T22:09:33.574Z,14.80
2018-01-28T22:12:01.159Z,13.90
2018-01-28T22:14:28.806Z,24.42
2018-01-28T22:16:56.404Z,11.90
2018-01-28T22:19:23.994Z,11.38
2018-01-28T22:21:51.578Z,16.25
2018-01-28T22:24:19.928Z,18.83
2018-01-28T22:26:47.615Z,19.48
2018-01-28T22:29:15.974Z,14.52
2018-01-28T22:31:43.559Z,11.23
2018-01-28T22:34:11.183Z,7.68
2018-01-28T22:36:39.539Z,7.05
2018-01-28T22:39:07.940Z,6.95
2018-01-28T22:41:35.526Z,11.68
2018-01-28T22:44:03.111Z,9.32
2018-01-28T22:46:30.699Z,6.90
2018-01-28T22:48:59.056Z,5.47
2018-01-28T22:51:26.698Z,7.00
2018-01-28T22:53:54.274Z,4.40
2018-01-28T22:56:21.859Z,4.80
2018-01-28T22:58:50.211Z,9.60
2018-01-28T23:01:17.790Z,6.30
2018-01-28T23:03:45.370Z,5.93
2018-01-28T23:06:12.958Z,5.18
2018-01-28T23:08:40.550Z,4.50
2018-01-28T23:11:08.184Z,8.85
2018-01-28T23:13:36.531Z,6.40
2018-01-28T23:16:04.123Z,8.65
2018-01-28T23:18:32.478Z,5.75
2018-01-28T23:21:00.063Z,5.50
2018-01-28T23:23:28.414Z,7.30
2018-01-28T23:25:55.999Z,7.37
2018-01-28T23:28:23.581Z,5.55
2018-01-28T23:30:51.943Z,7.28
2018-01-28T23:33:19.526Z,9.23
2018-01-28T23:35:47.886Z,10.48
2018-01-28T23:38:15.467Z,7.22
2018-01-28T23:40:43.047Z,7.97
2018-01-28T23:43:11.398Z,6.43
2018-01-28T23:45:38.978Z,4.53
2018-01-28T23:48:06.569Z,6.37
2018-01-28T23:50:34.214Z,4.07
2018-01-28T23:53:02.578Z,3.90
2018-01-28T23:55:30.170Z,4.90
2018-01-28T23:57:57.759Z,5.47
